sensor_id;sensor_type;location;lat;lon;timestamp;temperature;humidity
12434;DHT22;6281;49.038;8.372;2023-05-08T00:00:56;15.60;99.90
12434;DHT22;6281;49.038;8.372;2023-05-08T00:03:23;15.60;99.90
12434;DHT22;6281;49.038;8.372;2023-05-08T00:05:50;15.60;99.90
12434;DHT22;6281;49.038;8.372;2023-05-08T00:08:19;15.70;99.90
12434;DHT22;6281;49.038;8.372;2023-05-08T00:10:46;15.80;99.90
12434;DHT22;6281;49.038;8.372;2023-05-08T00:13:13;15.60;99.90
12434;DHT22;6281;49.038;8.372;2023-05-08T00:15:42;15.70;99.90
12434;DHT22;6281;49.038;8.372;2023-05-08T00:18:09;15.70;99.90
12434;DHT22;6281;49.038;8.372;2023-05-08T00:20:36;15.80;99.90
12434;DHT22;6281;49.038;8.372;2023-05-08T00:23:03;15.80;99.90
12434;DHT22;6281;49.038;8.372;2023-05-08T00:25:30;15.80;99.90
12434;DHT22;6281;49.038;8.372;2023-05-08T00:27:57;15.60;99.90
12434;DHT22;6281;49.038;8.372;2023-05-08T00:30:24;15.60;99.90
12434;DHT22;6281;49.038;8.372;2023-05-08T00:32:53;15.70;99.90
12434;DHT22;6281;49.038;8.372;2023-05-08T00:35:19;15.60;99.90
12434;DHT22;6281;49.038;8.372;2023-05-08T00:37:46;15.50;99.90
12434;DHT22;6281;49.038;8.372;2023-05-08T00:40:13;15.30;99.90
12434;DHT22;6281;49.038;8.372;2023-05-08T00:42:40;15.30;99.90
12434;DHT22;6281;49.038;8.372;2023-05-08T00:45:08;15.60;99.90
12434;DHT22;6281;49.038;8.372;2023-05-08T00:47:35;15.60;99.90
12434;DHT22;6281;49.038;8.372;2023-05-08T00:50:04;15.60;99.90
12434;DHT22;6281;49.038;8.372;2023-05-08T00:52:32;15.70;99.90
12434;DHT22;6281;49.038;8.372;2023-05-08T00:54:59;15.70;99.90
12434;DHT22;6281;49.038;8.372;2023-05-08T00:57:27;15.80;99.90
12434;DHT22;6281;49.038;8.372;2023-05-08T00:59:55;15.70;99.90
12434;DHT22;6281;49.038;8.372;2023-05-08T01:02:22;15.80;99.90
12434;DHT22;6281;49.038;8.372;2023-05-08T01:04:50;15.80;99.90
12434;DHT22;6281;49.038;8.372;2023-05-08T01:07:20;15.80;99.90
12434;DHT22;6281;49.038;8.372;2023-05-08T01:09:47;15.80;99.90
12434;DHT22;6281;49.038;8.372;2023-05-08T01:12:18;15.70;99.90
12434;DHT22;6281;49.038;8.372;2023-05-08T01:14:56;15.70;99.90
12434;DHT22;6281;49.038;8.372;2023-05-08T01:17:31;15.80;99.90
12434;DHT22;6281;49.038;8.372;2023-05-08T01:20:14;15.80;99.90
12434;DHT22;6281;49.038;8.372;2023-05-08T01:29:08;15.80;99.90
12434;DHT22;6281;49.038;8.372;2023-05-08T01:31:50;15.80;99.90
12434;DHT22;6281;49.038;8.372;2023-05-08T01:34:23;15.70;99.90
12434;DHT22;6281;49.038;8.372;2023-05-08T01:36:56;15.80;99.90
12434;DHT22;6281;49.038;8.372;2023-05-08T01:39:30;15.80;99.90
12434;DHT22;6281;49.038;8.372;2023-05-08T01:42:04;15.80;99.90
12434;DHT22;6281;49.038;8.372;2023-05-08T01:44:36;15.80;99.90
12434;DHT22;6281;49.038;8.372;2023-05-08T01:47:06;15.80;99.90
12434;DHT22;6281;49.038;8.372;2023-05-08T01:49:39;15.70;99.90
12434;DHT22;6281;49.038;8.372;2023-05-08T01:52:09;15.80;99.90
12434;DHT22;6281;49.038;8.372;2023-05-08T01:54:43;15.70;99.90
12434;DHT22;6281;49.038;8.372;2023-05-08T01:57:13;15.70;99.90
12434;DHT22;6281;49.038;8.372;2023-05-08T01:59:42;15.70;99.90
12434;DHT22;6281;49.038;8.372;2023-05-08T02:02:11;15.70;99.90
12434;DHT22;6281;49.038;8.372;2023-05-08T02:04:40;15.60;99.90
12434;DHT22;6281;49.038;8.372;2023-05-08T02:07:08;15.70;99.90
12434;DHT22;6281;49.038;8.372;2023-05-08T02:09:36;15.70;99.90
12434;DHT22;6281;49.038;8.372;2023-05-08T02:12:05;15.60;99.90
12434;DHT22;6281;49.038;8.372;2023-05-08T02:14:35;15.60;99.90
12434;DHT22;6281;49.038;8.372;2023-05-08T02:17:03;15.60;99.90
12434;DHT22;6281;49.038;8.372;2023-05-08T02:19:35;15.70;99.90
12434;DHT22;6281;49.038;8.372;2023-05-08T02:22:06;15.60;99.90
12434;DHT22;6281;49.038;8.372;2023-05-08T02:24:34;15.70;99.90
12434;DHT22;6281;49.038;8.372;2023-05-08T02:27:01;15.60;99.90
12434;DHT22;6281;49.038;8.372;2023-05-08T02:29:29;15.70;99.90
12434;DHT22;6281;49.038;8.372;2023-05-08T02:31:57;15.70;99.90
12434;DHT22;6281;49.038;8.372;2023-05-08T02:34:27;15.70;99.90
12434;DHT22;6281;49.038;8.372;2023-05-08T02:36:54;15.70;99.90
12434;DHT22;6281;49.038;8.372;2023-05-08T02:39:25;15.70;99.90
12434;DHT22;6281;49.038;8.372;2023-05-08T02:41:55;15.60;99.90
12434;DHT22;6281;49.038;8.372;2023-05-08T02:44:22;15.60;99.90
12434;DHT22;6281;49.038;8.372;2023-05-08T02:46:55;15.70;99.90
12434;DHT22;6281;49.038;8.372;2023-05-08T02:49:28;15.70;99.90
12434;DHT22;6281;49.038;8.372;2023-05-08T02:52:01;15.70;99.90
12434;DHT22;6281;49.038;8.372;2023-05-08T02:54:35;15.80;99.90
12434;DHT22;6281;49.038;8.372;2023-05-08T02:57:07;15.70;99.90
12434;DHT22;6281;49.038;8.372;2023-05-08T02:59:37;15.70;99.90
12434;DHT22;6281;49.038;8.372;2023-05-08T03:02:08;15.70;99.90
12434;DHT22;6281;49.038;8.372;2023-05-08T03:04:40;15.60;99.90
12434;DHT22;6281;49.038;8.372;2023-05-08T03:07:08;15.50;99.90
12434;DHT22;6281;49.038;8.372;2023-05-08T03:09:40;15.50;99.90
12434;DHT22;6281;49.038;8.372;2023-05-08T03:12:12;15.50;99.90
12434;DHT22;6281;49.038;8.372;2023-05-08T03:14:43;15.60;99.90
12434;DHT22;6281;49.038;8.372;2023-05-08T03:17:14;15.60;99.90
12434;DHT22;6281;49.038;8.372;2023-05-08T03:19:43;15.60;99.90
12434;DHT22;6281;49.038;8.372;2023-05-08T03:22:14;15.60;99.90
12434;DHT22;6281;49.038;8.372;2023-05-08T03:24:43;15.60;99.90
12434;DHT22;6281;49.038;8.372;2023-05-08T03:27:11;15.60;99.90
12434;DHT22;6281;49.038;8.372;2023-05-08T03:29:40;15.60;99.90
12434;DHT22;6281;49.038;8.372;2023-05-08T03:32:08;15.50;99.90
12434;DHT22;6281;49.038;8.372;2023-05-08T03:34:37;15.50;99.90
12434;DHT22;6281;49.038;8.372;2023-05-08T03:37:05;15.50;99.90
12434;DHT22;6281;49.038;8.372;2023-05-08T03:39:32;15.50;99.90
12434;DHT22;6281;49.038;8.372;2023-05-08T03:42:00;15.60;99.90
12434;DHT22;6281;49.038;8.372;2023-05-08T03:44:27;15.60;99.90
12434;DHT22;6281;49.038;8.372;2023-05-08T03:46:56;15.70;99.90
12434;DHT22;6281;49.038;8.372;2023-05-08T03:49:24;15.50;99.90
12434;DHT22;6281;49.038;8.372;2023-05-08T03:51:52;15.50;99.90
12434;DHT22;6281;49.038;8.372;2023-05-08T03:54:19;15.50;99.90
12434;DHT22;6281;49.038;8.372;2023-05-08T03:56:50;15.50;99.90
12434;DHT22;6281;49.038;8.372;2023-05-08T03:59:25;15.60;99.90
12434;DHT22;6281;49.038;8.372;2023-05-08T04:01:58;15.70;99.90
12434;DHT22;6281;49.038;8.372;2023-05-08T04:04:29;15.50;99.90
12434;DHT22;6281;49.038;8.372;2023-05-08T04:07:02;15.60;99.90
12434;DHT22;6281;49.038;8.372;2023-05-08T04:09:36;15.70;99.90
12434;DHT22;6281;49.038;8.372;2023-05-08T04:12:11;15.70;99.90
12434;DHT22;6281;49.038;8.372;2023-05-08T04:14:43;15.60;99.90
12434;DHT22;6281;49.038;8.372;2023-05-08T04:17:14;15.50;99.90
12434;DHT22;6281;49.038;8.372;2023-05-08T04:19:45;15.60;99.90
12434;DHT22;6281;49.038;8.372;2023-05-08T04:22:14;15.60;99.90
12434;DHT22;6281;49.038;8.372;2023-05-08T04:24:43;15.70;99.90
12434;DHT22;6281;49.038;8.372;2023-05-08T04:27:11;15.70;99.90
12434;DHT22;6281;49.038;8.372;2023-05-08T04:29:38;15.80;99.90
12434;DHT22;6281;49.038;8.372;2023-05-08T04:32:08;15.80;99.90
12434;DHT22;6281;49.038;8.372;2023-05-08T04:34:35;15.80;99.90
12434;DHT22;6281;49.038;8.372;2023-05-08T04:37:05;15.70;99.90
12434;DHT22;6281;49.038;8.372;2023-05-08T04:39:32;15.80;99.90
12434;DHT22;6281;49.038;8.372;2023-05-08T04:41:59;15.80;99.90
12434;DHT22;6281;49.038;8.372;2023-05-08T04:44:28;15.80;99.90
12434;DHT22;6281;49.038;8.372;2023-05-08T04:46:55;15.90;99.90
12434;DHT22;6281;49.038;8.372;2023-05-08T04:49:23;15.90;99.90
12434;DHT22;6281;49.038;8.372;2023-05-08T04:51:50;15.90;99.90
12434;DHT22;6281;49.038;8.372;2023-05-08T04:54:17;15.80;99.90
12434;DHT22;6281;49.038;8.372;2023-05-08T04:56:44;15.80;99.90
12434;DHT22;6281;49.038;8.372;2023-05-08T04:59:11;15.90;99.90
12434;DHT22;6281;49.038;8.372;2023-05-08T05:01:38;15.90;99.90
12434;DHT22;6281;49.038;8.372;2023-05-08T05:04:04;15.80;99.90
12434;DHT22;6281;49.038;8.372;2023-05-08T05:06:33;15.80;99.90
12434;DHT22;6281;49.038;8.372;2023-05-08T05:08:59;15.80;99.90
12434;DHT22;6281;49.038;8.372;2023-05-08T05:11:26;15.80;99.90
12434;DHT22;6281;49.038;8.372;2023-05-08T05:13:53;15.90;99.90
12434;DHT22;6281;49.038;8.372;2023-05-08T05:16:20;15.90;99.90
12434;DHT22;6281;49.038;8.372;2023-05-08T05:18:46;15.90;99.90
12434;DHT22;6281;49.038;8.372;2023-05-08T05:21:13;15.90;99.90
12434;DHT22;6281;49.038;8.372;2023-05-08T05:23:41;15.90;99.90
12434;DHT22;6281;49.038;8.372;2023-05-08T05:26:08;16.00;99.90
12434;DHT22;6281;49.038;8.372;2023-05-08T05:28:35;16.00;99.90
12434;DHT22;6281;49.038;8.372;2023-05-08T05:31:02;15.90;99.90
12434;DHT22;6281;49.038;8.372;2023-05-08T05:33:28;15.90;99.90
12434;DHT22;6281;49.038;8.372;2023-05-08T05:35:55;15.90;99.90
12434;DHT22;6281;49.038;8.372;2023-05-08T05:38:23;16.00;99.90
12434;DHT22;6281;49.038;8.372;2023-05-08T05:40:51;16.10;99.90
12434;DHT22;6281;49.038;8.372;2023-05-08T05:43:18;16.00;99.90
12434;DHT22;6281;49.038;8.372;2023-05-08T05:45:45;16.00;99.90
12434;DHT22;6281;49.038;8.372;2023-05-08T05:48:11;16.00;99.90
12434;DHT22;6281;49.038;8.372;2023-05-08T05:50:38;16.00;99.90
12434;DHT22;6281;49.038;8.372;2023-05-08T05:53:05;16.00;99.90
12434;DHT22;6281;49.038;8.372;2023-05-08T05:55:32;16.00;99.90
12434;DHT22;6281;49.038;8.372;2023-05-08T05:58:01;16.00;99.90
12434;DHT22;6281;49.038;8.372;2023-05-08T06:00:28;15.90;99.90
12434;DHT22;6281;49.038;8.372;2023-05-08T06:02:55;16.00;99.90
12434;DHT22;6281;49.038;8.372;2023-05-08T06:05:22;16.00;99.90
12434;DHT22;6281;49.038;8.372;2023-05-08T06:07:49;15.90;99.90
12434;DHT22;6281;49.038;8.372;2023-05-08T06:10:16;16.00;99.90
12434;DHT22;6281;49.038;8.372;2023-05-08T06:12:43;16.00;99.90
12434;DHT22;6281;49.038;8.372;2023-05-08T06:15:12;16.10;99.90
12434;DHT22;6281;49.038;8.372;2023-05-08T06:17:41;16.00;99.90
12434;DHT22;6281;49.038;8.372;2023-05-08T06:20:08;15.80;99.90
12434;DHT22;6281;49.038;8.372;2023-05-08T06:22:35;15.90;99.90
12434;DHT22;6281;49.038;8.372;2023-05-08T06:25:05;15.90;99.90
12434;DHT22;6281;49.038;8.372;2023-05-08T06:27:33;15.90;99.90
12434;DHT22;6281;49.038;8.372;2023-05-08T06:29:59;16.10;99.90
12434;DHT22;6281;49.038;8.372;2023-05-08T06:32:28;16.10;99.90
12434;DHT22;6281;49.038;8.372;2023-05-08T06:34:55;16.10;99.90
12434;DHT22;6281;49.038;8.372;2023-05-08T06:37:22;16.20;99.90
12434;DHT22;6281;49.038;8.372;2023-05-08T06:39:49;16.10;99.90
12434;DHT22;6281;49.038;8.372;2023-05-08T06:42:16;16.00;99.90
12434;DHT22;6281;49.038;8.372;2023-05-08T06:44:43;16.00;99.90
12434;DHT22;6281;49.038;8.372;2023-05-08T06:47:10;16.10;99.90
12434;DHT22;6281;49.038;8.372;2023-05-08T06:49:38;16.20;99.90
12434;DHT22;6281;49.038;8.372;2023-05-08T06:52:05;16.20;99.90
12434;DHT22;6281;49.038;8.372;2023-05-08T06:54:32;16.20;99.90
12434;DHT22;6281;49.038;8.372;2023-05-08T06:56:59;16.20;99.90
12434;DHT22;6281;49.038;8.372;2023-05-08T06:59:26;16.30;99.90
12434;DHT22;6281;49.038;8.372;2023-05-08T07:01:53;16.20;99.90
12434;DHT22;6281;49.038;8.372;2023-05-08T07:04:20;16.30;99.90
12434;DHT22;6281;49.038;8.372;2023-05-08T07:06:48;16.40;99.90
12434;DHT22;6281;49.038;8.372;2023-05-08T07:09:15;16.40;99.90
12434;DHT22;6281;49.038;8.372;2023-05-08T07:11:42;16.40;99.90
12434;DHT22;6281;49.038;8.372;2023-05-08T07:14:09;16.30;99.90
12434;DHT22;6281;49.038;8.372;2023-05-08T07:16:36;16.50;99.90
12434;DHT22;6281;49.038;8.372;2023-05-08T07:19:03;16.50;99.90
12434;DHT22;6281;49.038;8.372;2023-05-08T07:21:30;16.60;99.90
12434;DHT22;6281;49.038;8.372;2023-05-08T07:23:58;16.60;99.90
12434;DHT22;6281;49.038;8.372;2023-05-08T07:26:25;16.50;99.90
12434;DHT22;6281;49.038;8.372;2023-05-08T07:28:52;16.70;99.90
12434;DHT22;6281;49.038;8.372;2023-05-08T07:31:19;16.50;99.90
12434;DHT22;6281;49.038;8.372;2023-05-08T07:33:46;16.60;99.90
12434;DHT22;6281;49.038;8.372;2023-05-08T07:36:13;16.60;99.90
12434;DHT22;6281;49.038;8.372;2023-05-08T07:38:40;16.60;99.90
12434;DHT22;6281;49.038;8.372;2023-05-08T07:41:08;16.60;99.90
12434;DHT22;6281;49.038;8.372;2023-05-08T07:43:35;16.60;99.90
12434;DHT22;6281;49.038;8.372;2023-05-08T07:46:04;16.60;99.90
12434;DHT22;6281;49.038;8.372;2023-05-08T07:48:31;16.80;99.90
12434;DHT22;6281;49.038;8.372;2023-05-08T07:50:58;16.80;99.90
12434;DHT22;6281;49.038;8.372;2023-05-08T07:53:25;16.90;99.90
12434;DHT22;6281;49.038;8.372;2023-05-08T07:55:51;16.80;99.90
12434;DHT22;6281;49.038;8.372;2023-05-08T07:58:20;16.90;99.90
12434;DHT22;6281;49.038;8.372;2023-05-08T08:00:47;16.90;99.90
12434;DHT22;6281;49.038;8.372;2023-05-08T08:03:14;16.90;99.90
12434;DHT22;6281;49.038;8.372;2023-05-08T08:05:41;17.00;99.90
12434;DHT22;6281;49.038;8.372;2023-05-08T08:08:08;17.10;99.90
12434;DHT22;6281;49.038;8.372;2023-05-08T08:10:35;17.00;99.90
12434;DHT22;6281;49.038;8.372;2023-05-08T08:13:02;17.20;99.90
12434;DHT22;6281;49.038;8.372;2023-05-08T08:15:30;17.10;99.90
12434;DHT22;6281;49.038;8.372;2023-05-08T08:17:57;17.00;99.90
12434;DHT22;6281;49.038;8.372;2023-05-08T08:20:24;17.10;99.90
12434;DHT22;6281;49.038;8.372;2023-05-08T08:22:51;17.10;99.90
12434;DHT22;6281;49.038;8.372;2023-05-08T08:25:18;17.00;99.90
12434;DHT22;6281;49.038;8.372;2023-05-08T08:27:46;17.20;99.90
12434;DHT22;6281;49.038;8.372;2023-05-08T08:30:13;17.10;99.90
12434;DHT22;6281;49.038;8.372;2023-05-08T08:32:41;17.30;99.90
12434;DHT22;6281;49.038;8.372;2023-05-08T08:35:09;17.20;99.90
12434;DHT22;6281;49.038;8.372;2023-05-08T08:37:36;17.30;99.90
12434;DHT22;6281;49.038;8.372;2023-05-08T08:40:03;17.30;99.90
12434;DHT22;6281;49.038;8.372;2023-05-08T08:42:30;17.30;99.90
12434;DHT22;6281;49.038;8.372;2023-05-08T08:44:57;17.40;99.90
12434;DHT22;6281;49.038;8.372;2023-05-08T08:47:27;17.40;99.90
12434;DHT22;6281;49.038;8.372;2023-05-08T08:49:57;17.50;99.90
12434;DHT22;6281;49.038;8.372;2023-05-08T08:52:30;17.50;99.90
12434;DHT22;6281;49.038;8.372;2023-05-08T08:54:59;17.30;99.90
12434;DHT22;6281;49.038;8.372;2023-05-08T08:57:31;17.30;99.90
12434;DHT22;6281;49.038;8.372;2023-05-08T09:00:02;17.40;99.90
12434;DHT22;6281;49.038;8.372;2023-05-08T09:02:30;17.40;99.90
12434;DHT22;6281;49.038;8.372;2023-05-08T09:04:59;17.40;99.90
12434;DHT22;6281;49.038;8.372;2023-05-08T09:07:26;17.30;99.90
12434;DHT22;6281;49.038;8.372;2023-05-08T09:09:55;17.40;99.90
12434;DHT22;6281;49.038;8.372;2023-05-08T09:12:21;17.30;99.90
12434;DHT22;6281;49.038;8.372;2023-05-08T09:14:49;17.40;99.90
12434;DHT22;6281;49.038;8.372;2023-05-08T09:17:16;17.50;99.90
12434;DHT22;6281;49.038;8.372;2023-05-08T09:19:43;17.20;99.90
12434;DHT22;6281;49.038;8.372;2023-05-08T09:22:12;17.30;99.90
12434;DHT22;6281;49.038;8.372;2023-05-08T09:25:03;17.40;99.90
12434;DHT22;6281;49.038;8.372;2023-05-08T09:27:31;17.10;99.90
12434;DHT22;6281;49.038;8.372;2023-05-08T09:30:00;17.30;99.90
12434;DHT22;6281;49.038;8.372;2023-05-08T09:32:28;17.20;99.90
12434;DHT22;6281;49.038;8.372;2023-05-08T09:34:56;17.10;99.90
12434;DHT22;6281;49.038;8.372;2023-05-08T09:37:26;17.30;99.90
12434;DHT22;6281;49.038;8.372;2023-05-08T09:39:53;17.50;99.90
12434;DHT22;6281;49.038;8.372;2023-05-08T09:42:20;17.40;99.90
12434;DHT22;6281;49.038;8.372;2023-05-08T09:44:51;17.40;99.90
12434;DHT22;6281;49.038;8.372;2023-05-08T09:47:19;17.10;99.90
12434;DHT22;6281;49.038;8.372;2023-05-08T09:50:17;17.40;99.90
12434;DHT22;6281;49.038;8.372;2023-05-08T09:52:47;17.40;99.90
12434;DHT22;6281;49.038;8.372;2023-05-08T09:55:15;17.50;99.90
12434;DHT22;6281;49.038;8.372;2023-05-08T09:57:52;17.50;99.90
12434;DHT22;6281;49.038;8.372;2023-05-08T10:00:20;17.40;99.90
12434;DHT22;6281;49.038;8.372;2023-05-08T10:02:55;17.60;99.90
12434;DHT22;6281;49.038;8.372;2023-05-08T10:05:24;17.40;99.90
12434;DHT22;6281;49.038;8.372;2023-05-08T10:07:53;17.50;99.90
12434;DHT22;6281;49.038;8.372;2023-05-08T10:10:23;17.50;99.90
12434;DHT22;6281;49.038;8.372;2023-05-08T10:12:52;17.40;99.90
12434;DHT22;6281;49.038;8.372;2023-05-08T10:15:22;17.50;99.90
12434;DHT22;6281;49.038;8.372;2023-05-08T10:17:53;17.80;99.90
12434;DHT22;6281;49.038;8.372;2023-05-08T10:20:21;17.70;99.90
12434;DHT22;6281;49.038;8.372;2023-05-08T10:22:57;17.70;99.90
12434;DHT22;6281;49.038;8.372;2023-05-08T10:25:30;17.30;99.90
12434;DHT22;6281;49.038;8.372;2023-05-08T10:28:05;17.10;99.90
12434;DHT22;6281;49.038;8.372;2023-05-08T10:30:33;17.10;99.90
12434;DHT22;6281;49.038;8.372;2023-05-08T10:33:08;17.10;99.90
12434;DHT22;6281;49.038;8.372;2023-05-08T10:35:36;17.30;99.90
12434;DHT22;6281;49.038;8.372;2023-05-08T10:38:07;17.30;99.90
12434;DHT22;6281;49.038;8.372;2023-05-08T10:40:34;17.30;99.90
12434;DHT22;6281;49.038;8.372;2023-05-08T10:43:02;17.30;99.90
12434;DHT22;6281;49.038;8.372;2023-05-08T10:45:32;17.30;99.90
12434;DHT22;6281;49.038;8.372;2023-05-08T10:48:07;17.20;99.90
12434;DHT22;6281;49.038;8.372;2023-05-08T10:50:41;17.30;99.90
12434;DHT22;6281;49.038;8.372;2023-05-08T10:53:16;17.40;99.90
12434;DHT22;6281;49.038;8.372;2023-05-08T10:55:48;17.50;99.90
12434;DHT22;6281;49.038;8.372;2023-05-08T10:58:28;17.60;99.90
12434;DHT22;6281;49.038;8.372;2023-05-08T11:01:12;17.70;99.90
12434;DHT22;6281;49.038;8.372;2023-05-08T11:03:44;17.90;99.90
12434;DHT22;6281;49.038;8.372;2023-05-08T11:06:12;18.00;99.90
12434;DHT22;6281;49.038;8.372;2023-05-08T11:08:48;18.00;99.90
12434;DHT22;6281;49.038;8.372;2023-05-08T11:11:38;18.00;99.90
12434;DHT22;6281;49.038;8.372;2023-05-08T11:14:13;18.20;99.90
12434;DHT22;6281;49.038;8.372;2023-05-08T11:17:04;18.20;99.90
12434;DHT22;6281;49.038;8.372;2023-05-08T11:19:31;18.10;99.90
12434;DHT22;6281;49.038;8.372;2023-05-08T11:22:12;18.00;99.90
12434;DHT22;6281;49.038;8.372;2023-05-08T11:24:47;18.00;99.90
12434;DHT22;6281;49.038;8.372;2023-05-08T11:27:14;18.00;99.90
12434;DHT22;6281;49.038;8.372;2023-05-08T11:29:41;18.00;99.90
12434;DHT22;6281;49.038;8.372;2023-05-08T11:32:12;18.00;99.90
12434;DHT22;6281;49.038;8.372;2023-05-08T11:34:45;18.10;99.90
12434;DHT22;6281;49.038;8.372;2023-05-08T11:37:17;18.10;99.90
12434;DHT22;6281;49.038;8.372;2023-05-08T11:39:46;18.10;99.90
12434;DHT22;6281;49.038;8.372;2023-05-08T11:42:32;18.10;99.90
12434;DHT22;6281;49.038;8.372;2023-05-08T11:45:03;18.20;99.90
12434;DHT22;6281;49.038;8.372;2023-05-08T11:47:36;18.20;99.90
12434;DHT22;6281;49.038;8.372;2023-05-08T11:50:05;18.20;99.90
12434;DHT22;6281;49.038;8.372;2023-05-08T11:52:33;18.10;99.90
12434;DHT22;6281;49.038;8.372;2023-05-08T11:55:06;18.20;99.90
12434;DHT22;6281;49.038;8.372;2023-05-08T11:57:33;18.30;99.90
12434;DHT22;6281;49.038;8.372;2023-05-08T12:00:03;18.30;99.90
12434;DHT22;6281;49.038;8.372;2023-05-08T12:02:35;18.20;99.90
12434;DHT22;6281;49.038;8.372;2023-05-08T12:05:03;18.20;99.90
12434;DHT22;6281;49.038;8.372;2023-05-08T12:07:30;18.10;99.90
12434;DHT22;6281;49.038;8.372;2023-05-08T12:09:57;18.10;99.90
12434;DHT22;6281;49.038;8.372;2023-05-08T12:12:36;18.10;99.90
12434;DHT22;6281;49.038;8.372;2023-05-08T12:15:07;18.20;99.90
12434;DHT22;6281;49.038;8.372;2023-05-08T12:17:37;18.20;99.90
12434;DHT22;6281;49.038;8.372;2023-05-08T12:20:11;18.20;99.90
12434;DHT22;6281;49.038;8.372;2023-05-08T12:22:39;18.40;99.90
12434;DHT22;6281;49.038;8.372;2023-05-08T12:25:07;18.40;99.90
12434;DHT22;6281;49.038;8.372;2023-05-08T12:27:36;18.50;99.90
12434;DHT22;6281;49.038;8.372;2023-05-08T12:30:07;18.60;99.90
12434;DHT22;6281;49.038;8.372;2023-05-08T12:32:36;18.60;99.90
12434;DHT22;6281;49.038;8.372;2023-05-08T12:35:04;18.70;99.90
12434;DHT22;6281;49.038;8.372;2023-05-08T12:37:32;18.80;99.90
12434;DHT22;6281;49.038;8.372;2023-05-08T12:39:58;19.00;99.90
12434;DHT22;6281;49.038;8.372;2023-05-08T12:45:24;19.10;99.90
12434;DHT22;6281;49.038;8.372;2023-05-08T12:47:53;19.30;99.90
12434;DHT22;6281;49.038;8.372;2023-05-08T12:50:21;19.40;99.90
12434;DHT22;6281;49.038;8.372;2023-05-08T12:52:49;19.30;99.90
12434;DHT22;6281;49.038;8.372;2023-05-08T12:55:20;19.40;99.90
12434;DHT22;6281;49.038;8.372;2023-05-08T12:57:48;19.60;99.90
12434;DHT22;6281;49.038;8.372;2023-05-08T13:00:17;19.80;99.90
12434;DHT22;6281;49.038;8.372;2023-05-08T13:02:52;20.50;99.90
12434;DHT22;6281;49.038;8.372;2023-05-08T13:05:22;20.50;99.90
12434;DHT22;6281;49.038;8.372;2023-05-08T13:07:49;20.70;99.90
12434;DHT22;6281;49.038;8.372;2023-05-08T13:10:17;20.60;99.90
12434;DHT22;6281;49.038;8.372;2023-05-08T13:12:44;21.10;99.90
12434;DHT22;6281;49.038;8.372;2023-05-08T13:15:13;21.10;99.90
12434;DHT22;6281;49.038;8.372;2023-05-08T13:17:40;20.80;99.90
12434;DHT22;6281;49.038;8.372;2023-05-08T13:20:09;20.80;99.90
12434;DHT22;6281;49.038;8.372;2023-05-08T13:22:36;20.70;99.90
12434;DHT22;6281;49.038;8.372;2023-05-08T13:25:04;20.50;99.90
12434;DHT22;6281;49.038;8.372;2023-05-08T13:27:31;20.70;99.90
12434;DHT22;6281;49.038;8.372;2023-05-08T13:29:58;20.30;99.90
12434;DHT22;6281;49.038;8.372;2023-05-08T13:32:25;20.10;99.90
12434;DHT22;6281;49.038;8.372;2023-05-08T13:34:52;20.10;99.90
12434;DHT22;6281;49.038;8.372;2023-05-08T13:37:21;20.10;99.90
12434;DHT22;6281;49.038;8.372;2023-05-08T13:39:47;20.10;99.90
12434;DHT22;6281;49.038;8.372;2023-05-08T13:42:14;20.10;99.90
12434;DHT22;6281;49.038;8.372;2023-05-08T13:44:44;20.10;99.90
12434;DHT22;6281;49.038;8.372;2023-05-08T13:47:11;20.10;99.90
12434;DHT22;6281;49.038;8.372;2023-05-08T13:49:39;20.00;99.90
12434;DHT22;6281;49.038;8.372;2023-05-08T13:52:06;20.00;99.90
12434;DHT22;6281;49.038;8.372;2023-05-08T13:54:35;20.10;99.90
12434;DHT22;6281;49.038;8.372;2023-05-08T13:57:02;20.20;99.90
12434;DHT22;6281;49.038;8.372;2023-05-08T13:59:29;20.10;99.90
12434;DHT22;6281;49.038;8.372;2023-05-08T14:01:57;20.30;99.90
12434;DHT22;6281;49.038;8.372;2023-05-08T14:04:24;20.10;99.90
12434;DHT22;6281;49.038;8.372;2023-05-08T14:06:51;20.30;99.90
12434;DHT22;6281;49.038;8.372;2023-05-08T14:09:18;20.60;99.90
12434;DHT22;6281;49.038;8.372;2023-05-08T14:11:46;20.70;99.90
12434;DHT22;6281;49.038;8.372;2023-05-08T14:14:13;20.90;99.90
12434;DHT22;6281;49.038;8.372;2023-05-08T14:16:40;21.10;99.90
12434;DHT22;6281;49.038;8.372;2023-05-08T14:19:07;21.40;99.90
12434;DHT22;6281;49.038;8.372;2023-05-08T14:21:34;22.30;99.90
12434;DHT22;6281;49.038;8.372;2023-05-08T14:24:01;22.20;99.90
12434;DHT22;6281;49.038;8.372;2023-05-08T14:26:28;22.10;99.90
12434;DHT22;6281;49.038;8.372;2023-05-08T14:28:56;21.90;99.90
12434;DHT22;6281;49.038;8.372;2023-05-08T14:31:23;22.00;99.90
12434;DHT22;6281;49.038;8.372;2023-05-08T14:33:50;21.70;99.90
12434;DHT22;6281;49.038;8.372;2023-05-08T14:36:17;21.40;99.90
12434;DHT22;6281;49.038;8.372;2023-05-08T14:38:44;21.20;99.90
12434;DHT22;6281;49.038;8.372;2023-05-08T14:41:11;20.90;99.90
12434;DHT22;6281;49.038;8.372;2023-05-08T14:43:38;20.60;99.90
12434;DHT22;6281;49.038;8.372;2023-05-08T14:46:08;20.70;99.90
12434;DHT22;6281;49.038;8.372;2023-05-08T14:48:35;20.60;99.90
12434;DHT22;6281;49.038;8.372;2023-05-08T14:51:02;20.60;99.90
12434;DHT22;6281;49.038;8.372;2023-05-08T14:53:29;20.60;99.90
12434;DHT22;6281;49.038;8.372;2023-05-08T14:55:56;20.50;99.90
12434;DHT22;6281;49.038;8.372;2023-05-08T14:58:24;20.50;99.90
12434;DHT22;6281;49.038;8.372;2023-05-08T15:00:51;20.50;99.90
12434;DHT22;6281;49.038;8.372;2023-05-08T15:03:19;20.30;99.90
12434;DHT22;6281;49.038;8.372;2023-05-08T15:05:46;20.50;99.90
12434;DHT22;6281;49.038;8.372;2023-05-08T15:08:13;20.50;99.90
12434;DHT22;6281;49.038;8.372;2023-05-08T15:10:40;20.50;99.90
12434;DHT22;6281;49.038;8.372;2023-05-08T15:13:07;20.40;99.90
12434;DHT22;6281;49.038;8.372;2023-05-08T15:15:34;20.50;99.90
12434;DHT22;6281;49.038;8.372;2023-05-08T15:18:00;20.40;99.90
12434;DHT22;6281;49.038;8.372;2023-05-08T15:20:29;20.60;99.90
12434;DHT22;6281;49.038;8.372;2023-05-08T15:22:56;20.70;99.90
12434;DHT22;6281;49.038;8.372;2023-05-08T15:25:23;20.60;99.90
12434;DHT22;6281;49.038;8.372;2023-05-08T15:27:50;20.50;99.90
12434;DHT22;6281;49.038;8.372;2023-05-08T15:30:18;20.40;99.90
12434;DHT22;6281;49.038;8.372;2023-05-08T15:32:45;20.10;99.90
12434;DHT22;6281;49.038;8.372;2023-05-08T15:35:12;20.10;99.90
12434;DHT22;6281;49.038;8.372;2023-05-08T15:37:44;20.30;99.90
12434;DHT22;6281;49.038;8.372;2023-05-08T15:40:11;20.20;99.90
12434;DHT22;6281;49.038;8.372;2023-05-08T15:42:38;20.00;99.90
12434;DHT22;6281;49.038;8.372;2023-05-08T15:45:06;20.20;99.90
12434;DHT22;6281;49.038;8.372;2023-05-08T15:47:33;20.00;99.90
12434;DHT22;6281;49.038;8.372;2023-05-08T15:50:00;19.80;99.90
12434;DHT22;6281;49.038;8.372;2023-05-08T15:52:27;19.70;99.90
12434;DHT22;6281;49.038;8.372;2023-05-08T15:55:03;20.00;99.90
12434;DHT22;6281;49.038;8.372;2023-05-08T15:57:30;19.90;99.90
12434;DHT22;6281;49.038;8.372;2023-05-08T15:59:57;19.80;99.90
12434;DHT22;6281;49.038;8.372;2023-05-08T16:02:25;19.80;99.90
12434;DHT22;6281;49.038;8.372;2023-05-08T16:04:52;19.70;99.90